createdAt,value
2019-04-01T00:02:23.645Z,43.57
2019-04-01T00:04:52.053Z,49.20
2019-04-01T00:07:20.498Z,45.23
2019-04-01T00:09:48.913Z,43.80
2019-04-01T00:12:17.409Z,43.85
2019-04-01T00:14:45.833Z,45.10
2019-04-01T00:17:14.257Z,47.37
2019-04-01T00:19:42.704Z,50.10
2019-04-01T00:22:11.132Z,44.88
2019-04-01T00:24:39.542Z,48.23
2019-04-01T00:27:07.971Z,45.15
2019-04-01T00:29:36.433Z,40.73
2019-04-01T00:32:04.845Z,47.50
2019-04-01T00:34:33.289Z,46.17
2019-04-01T00:37:02.079Z,43.83
2019-04-01T00:39:30.501Z,51.90
2019-04-01T00:42:06.305Z,46.20
2019-04-01T00:44:34.709Z,50.47
2019-04-01T00:47:03.457Z,45.08
2019-04-01T00:49:31.871Z,46.17
2019-04-01T00:52:00.277Z,51.50
2019-04-01T00:54:28.699Z,54.60
2019-04-01T00:56:57.109Z,53.50
2019-04-01T00:59:25.543Z,43.50
2019-04-01T01:01:53.953Z,50.45
2019-04-01T01:04:22.373Z,50.98
2019-04-01T01:06:50.806Z,64.95
2019-04-01T01:09:19.277Z,55.03
2019-04-01T01:11:47.768Z,55.43
2019-04-01T01:14:16.182Z,58.50
2019-04-01T01:16:44.602Z,50.20
2019-04-01T01:19:13.025Z,54.80
2019-04-01T01:21:41.438Z,53.63
2019-04-01T01:24:09.882Z,56.37
2019-04-01T01:26:38.333Z,48.92
2019-04-01T01:29:06.771Z,55.05
2019-04-01T01:31:35.202Z,63.05
2019-04-01T01:34:03.641Z,50.95
2019-04-01T01:36:32.221Z,56.15
2019-04-01T01:39:00.665Z,56.83
2019-04-01T01:41:29.083Z,62.70
2019-04-01T01:43:57.525Z,61.55
2019-04-01T01:46:25.941Z,56.75
2019-04-01T01:48:54.667Z,57.27
2019-04-01T01:51:23.103Z,57.27
2019-04-01T01:53:51.533Z,64.22
2019-04-01T01:56:19.945Z,63.90
2019-04-01T01:58:48.374Z,51.75
2019-04-01T02:01:16.793Z,58.78
2019-04-01T02:03:45.234Z,57.08
2019-04-01T02:06:13.655Z,56.10
2019-04-01T02:08:42.057Z,52.33
2019-04-01T02:11:10.485Z,56.20
2019-04-01T02:13:38.896Z,59.05
2019-04-01T02:16:07.330Z,68.12
2019-04-01T02:18:35.755Z,59.03
2019-04-01T02:21:04.253Z,68.05
2019-04-01T02:23:32.723Z,58.40
2019-04-01T02:26:01.181Z,67.45
2019-04-01T02:28:29.620Z,66.82
2019-04-01T02:30:58.042Z,58.68
2019-04-01T02:33:26.460Z,62.25
2019-04-01T02:35:55.003Z,61.28
2019-04-01T02:38:23.523Z,58.63
2019-04-01T02:40:52.437Z,59.77
2019-04-01T02:43:20.838Z,55.52
2019-04-01T02:45:49.364Z,58.85
2019-04-01T02:48:17.867Z,55.83
2019-04-01T02:50:46.302Z,68.07
2019-04-01T02:53:14.709Z,65.70
2019-04-01T02:55:43.142Z,57.85
2019-04-01T02:58:11.534Z,61.77
2019-04-01T03:00:39.982Z,61.08
2019-04-01T03:03:08.400Z,62.05
2019-04-01T03:05:37.303Z,63.98
2019-04-01T03:08:05.717Z,67.67
2019-04-01T03:10:34.526Z,63.20
2019-04-01T03:13:02.937Z,64.05
2019-04-01T03:15:31.350Z,59.90
2019-04-01T03:17:59.807Z,59.48
2019-04-01T03:20:28.289Z,55.35
2019-04-01T03:22:56.717Z,65.12
2019-04-01T03:25:25.214Z,58.92
2019-04-01T03:27:53.617Z,56.90
2019-04-01T03:30:22.121Z,59.80
2019-04-01T03:32:50.618Z,62.65
2019-04-01T03:35:19.067Z,64.35
2019-04-01T03:37:47.499Z,61.20
2019-04-01T03:40:16.011Z,60.28
2019-04-01T03:42:44.421Z,65.75
2019-04-01T03:45:13.688Z,68.25
2019-04-01T03:47:42.115Z,66.77
2019-04-01T03:50:10.609Z,67.60
2019-04-01T03:52:39.025Z,59.20
2019-04-01T03:55:07.433Z,63.83
2019-04-01T03:57:35.887Z,59.83
2019-04-01T04:00:06.225Z,64.10
2019-04-01T04:02:34.633Z,60.90
2019-04-01T04:05:03.512Z,61.40
2019-04-01T04:07:31.956Z,66.30
2019-04-01T04:10:00.475Z,61.53
2019-04-01T04:12:29.061Z,55.08
2019-04-01T04:14:57.513Z,65.70
2019-04-01T04:17:25.934Z,55.48
2019-04-01T04:19:54.363Z,62.60
2019-04-01T04:22:22.858Z,67.10
2019-04-01T04:24:51.290Z,69.85
2019-04-01T04:27:19.715Z,68.80
2019-04-01T04:29:48.151Z,64.70
2019-04-01T04:32:16.917Z,61.63
2019-04-01T04:34:45.331Z,62.62
2019-04-01T04:37:13.882Z,65.97
2019-04-01T04:39:42.390Z,70.22
2019-04-01T04:42:10.836Z,65.03
2019-04-01T04:44:39.422Z,65.80
2019-04-01T04:47:07.920Z,71.25
2019-04-01T04:49:36.338Z,59.95
2019-04-01T04:52:05.467Z,65.45
2019-04-01T04:54:33.926Z,66.42
2019-04-01T04:57:02.381Z,69.40
2019-04-01T04:59:30.816Z,66.65
2019-04-01T05:01:59.473Z,69.67
2019-04-01T05:04:27.870Z,65.62
2019-04-01T05:06:56.295Z,63.42
2019-04-01T05:09:25.058Z,67.05
2019-04-01T05:11:53.506Z,70.12
2019-04-01T05:14:21.958Z,59.70
2019-04-01T05:16:50.386Z,59.90
2019-04-01T05:19:38.450Z,70.15
2019-04-01T05:22:07.767Z,65.45
2019-04-01T05:24:36.543Z,68.62
2019-04-01T05:27:04.958Z,62.20
2019-04-01T05:29:53.671Z,66.67
2019-04-01T05:32:22.636Z,62.75
2019-04-01T05:34:54.439Z,57.08
2019-04-01T05:37:22.854Z,57.60
2019-04-01T05:39:51.305Z,65.67
2019-04-01T05:42:20.108Z,73.92
2019-04-01T05:44:48.689Z,59.60
2019-04-01T05:47:18.372Z,57.62
2019-04-01T05:49:47.076Z,68.90
2019-04-01T05:52:15.517Z,66.75
2019-04-01T05:54:44.458Z,59.13
2019-04-01T05:57:14.133Z,64.60
2019-04-01T05:59:43.187Z,64.42
2019-04-01T06:02:11.737Z,55.70
2019-04-01T06:04:40.159Z,64.62
2019-04-01T06:07:08.566Z,55.73
2019-04-01T06:09:36.987Z,61.15
2019-04-01T06:12:05.397Z,60.65
2019-04-01T06:14:34.696Z,59.55
2019-04-01T06:17:03.269Z,55.10
2019-04-01T06:19:31.692Z,64.58
2019-04-01T06:22:00.125Z,59.13
2019-04-01T06:24:28.551Z,55.70
2019-04-01T06:26:57.407Z,55.92
2019-04-01T06:29:25.872Z,61.02
2019-04-01T06:31:54.276Z,58.00
2019-04-01T06:34:22.778Z,50.35
2019-04-01T06:36:51.559Z,52.90
2019-04-01T06:39:19.989Z,59.08
2019-04-01T06:41:48.681Z,58.17
2019-04-01T06:44:17.113Z,54.25
2019-04-01T06:46:45.560Z,55.40
2019-04-01T06:49:14.019Z,47.75
2019-04-01T06:51:42.489Z,52.53
2019-04-01T06:54:10.974Z,52.03
2019-04-01T06:56:39.965Z,56.02
2019-04-01T06:59:08.397Z,50.37
2019-04-01T07:01:36.813Z,50.65
2019-04-01T07:04:05.322Z,39.97
2019-04-01T07:06:33.721Z,48.83
2019-04-01T07:09:02.433Z,46.30
2019-04-01T07:11:30.915Z,44.37
2019-04-01T07:14:00.213Z,42.20
2019-04-01T07:16:28.720Z,53.63
2019-04-01T07:18:57.385Z,51.10
2019-04-01T07:21:25.891Z,42.87
2019-04-01T07:23:54.739Z,46.53
2019-04-01T07:26:23.158Z,45.43
2019-04-01T07:28:51.569Z,49.13
2019-04-01T07:31:19.989Z,45.27
2019-04-01T07:33:48.489Z,48.30
2019-04-01T07:36:16.977Z,49.43
2019-04-01T07:38:45.414Z,44.07
2019-04-01T07:41:13.837Z,47.90
2019-04-01T07:43:42.422Z,45.50
2019-04-01T07:46:10.846Z,45.37
2019-04-01T07:48:39.478Z,48.37
2019-04-01T07:51:08.726Z,43.60
2019-04-01T07:53:37.208Z,44.80
2019-04-01T07:56:07.509Z,51.80
2019-04-01T07:58:35.988Z,45.60
2019-04-01T08:01:04.473Z,41.13
2019-04-01T08:03:32.886Z,39.13
2019-04-01T08:06:01.391Z,45.83
2019-04-01T08:08:29.842Z,42.70
2019-04-01T08:10:58.389Z,39.13
2019-04-01T08:13:26.833Z,43.93
2019-04-01T08:15:55.249Z,42.80
2019-04-01T08:18:23.663Z,35.23
2019-04-01T08:20:52.147Z,39.70
2019-04-01T08:23:20.756Z,38.67
2019-04-01T08:25:49.181Z,38.20
2019-04-01T08:28:17.609Z,40.97
2019-04-01T08:30:46.117Z,38.20
2019-04-01T08:33:14.618Z,39.83
2019-04-01T08:35:43.099Z,36.93
2019-04-01T08:38:11.576Z,39.33
2019-04-01T08:40:40.366Z,37.37
2019-04-01T08:43:08.795Z,36.63
2019-04-01T08:45:37.295Z,36.97
2019-04-01T08:48:05.763Z,42.80
2019-04-01T08:50:34.241Z,40.10
2019-04-01T08:53:05.440Z,36.30
2019-04-01T08:55:33.845Z,40.87
2019-04-01T08:58:02.545Z,42.80
2019-04-01T09:00:31.118Z,37.50
2019-04-01T09:02:59.699Z,40.07
2019-04-01T09:05:28.570Z,42.40
2019-04-01T09:07:58.379Z,34.97
2019-04-01T09:10:26.780Z,34.70
2019-04-01T09:12:57.669Z,36.60
2019-04-01T09:15:26.101Z,35.93
2019-04-01T09:17:54.534Z,35.73
2019-04-01T09:20:22.938Z,32.93
2019-04-01T09:22:51.361Z,33.60
2019-04-01T09:25:19.895Z,36.33
2019-04-01T09:27:48.388Z,36.40
2019-04-01T09:30:18.794Z,31.90
2019-04-01T09:32:47.485Z,40.67
2019-04-01T09:35:16.109Z,33.73
2019-04-01T09:37:44.625Z,38.83
2019-04-01T09:40:14.695Z,36.60
2019-04-01T09:42:43.475Z,41.90
2019-04-01T09:45:12.655Z,36.90
2019-04-01T09:47:41.086Z,36.70
2019-04-01T09:50:09.590Z,31.73
2019-04-01T09:52:38.110Z,35.53
2019-04-01T09:55:06.994Z,37.17
2019-04-01T09:57:35.677Z,38.57
2019-04-01T10:00:06.654Z,36.40
2019-04-01T10:02:35.094Z,36.03
2019-04-01T10:05:04.675Z,38.70
2019-04-01T10:07:33.233Z,37.80
2019-04-01T10:10:01.778Z,38.97
2019-04-01T10:12:30.248Z,39.30
2019-04-01T10:14:58.701Z,41.20
2019-04-01T10:17:27.129Z,39.20
2019-04-01T10:19:55.565Z,40.37
2019-04-01T10:22:43.501Z,37.23
2019-04-01T10:25:12.186Z,40.63
2019-04-01T10:27:40.613Z,39.60
2019-04-01T10:30:10.183Z,41.93
2019-04-01T10:32:38.690Z,42.10
2019-04-01T10:35:08.335Z,38.03
2019-04-01T10:37:36.761Z,40.93
2019-04-01T10:40:07.807Z,37.40
2019-04-01T10:42:36.230Z,37.83
2019-04-01T10:45:07.184Z,39.20
2019-04-01T10:47:35.906Z,35.17
2019-04-01T10:50:06.109Z,34.63
2019-04-01T10:52:34.595Z,33.57
2019-04-01T10:55:03.258Z,34.87
2019-04-01T10:57:31.766Z,32.83
2019-04-01T11:00:00.435Z,38.03
2019-04-01T11:02:29.575Z,33.90
2019-04-01T11:04:58.157Z,33.27
2019-04-01T11:07:26.785Z,34.53
2019-04-01T11:09:55.197Z,36.40
2019-04-01T11:12:24.849Z,36.93
2019-04-01T11:14:53.529Z,36.47
2019-04-01T11:17:21.966Z,37.03
2019-04-01T11:19:50.410Z,35.00
2019-04-01T11:22:18.823Z,35.70
2019-04-01T11:24:47.308Z,36.27
2019-04-01T11:27:16.039Z,39.20
2019-04-01T11:29:44.472Z,35.93
2019-04-01T11:32:13.771Z,39.03
2019-04-01T11:34:42.444Z,34.87
2019-04-01T11:37:11.002Z,36.80
2019-04-01T11:39:39.522Z,34.40
2019-04-01T11:42:07.972Z,36.10
2019-04-01T11:44:36.495Z,36.63
2019-04-01T11:47:04.947Z,32.80
2019-04-01T11:49:33.421Z,32.33
2019-04-01T11:52:01.889Z,28.90
2019-04-01T11:54:30.535Z,29.77
2019-04-01T11:56:58.959Z,36.13
2019-04-01T11:59:27.478Z,34.43
2019-04-01T12:01:55.885Z,38.30
2019-04-01T12:04:25.270Z,32.50
2019-04-01T12:06:56.667Z,35.20
2019-04-01T12:09:25.128Z,36.47
2019-04-01T12:11:53.552Z,26.10
2019-04-01T12:14:21.972Z,38.27
2019-04-01T12:16:50.383Z,31.70
2019-04-01T12:19:18.819Z,35.83
2019-04-01T12:21:47.314Z,33.00
2019-04-01T12:24:15.758Z,39.73
2019-04-01T12:26:44.187Z,31.97
2019-04-01T12:29:14.438Z,30.47
2019-04-01T12:31:42.833Z,38.07
2019-04-01T12:34:11.270Z,40.07
2019-04-01T12:36:39.669Z,33.00
2019-04-01T12:39:08.657Z,31.83
2019-04-01T12:41:37.086Z,32.47
2019-04-01T12:44:05.773Z,32.37
2019-04-01T12:46:34.366Z,32.53
2019-04-01T12:49:02.849Z,32.70
2019-04-01T12:51:31.319Z,36.17
2019-04-01T12:53:59.949Z,30.70
2019-04-01T12:56:28.369Z,42.33
2019-04-01T12:58:56.809Z,33.80
2019-04-01T13:01:25.225Z,33.53
2019-04-01T13:03:54.096Z,35.80
2019-04-01T13:06:22.598Z,32.80
2019-04-01T13:08:51.278Z,34.00
2019-04-01T13:11:20.825Z,34.07
2019-04-01T13:13:49.280Z,34.37
2019-04-01T13:16:17.685Z,33.50
2019-04-01T13:18:47.288Z,36.33
2019-04-01T13:21:16.128Z,34.13
2019-04-01T13:23:44.624Z,35.17
2019-04-01T13:26:13.210Z,31.80
2019-04-01T13:28:42.491Z,32.10
2019-04-01T13:31:11.298Z,30.87
2019-04-01T13:33:39.801Z,31.10
2019-04-01T13:36:08.261Z,33.27
2019-04-01T13:38:36.709Z,30.67
2019-04-01T13:41:05.149Z,36.53
2019-04-01T13:43:33.713Z,23.03
2019-04-01T13:46:02.162Z,36.07
2019-04-01T13:48:30.566Z,34.57
2019-04-01T13:50:59.010Z,33.50
2019-04-01T13:53:28.575Z,31.73
2019-04-01T13:55:57.165Z,36.50
2019-04-01T13:58:25.573Z,31.80
2019-04-01T14:00:53.993Z,28.70
2019-04-01T14:03:22.401Z,37.97
2019-04-01T14:05:50.926Z,30.87
2019-04-01T14:08:19.395Z,31.33
2019-04-01T14:10:48.234Z,31.63
2019-04-01T14:13:16.658Z,33.17
2019-04-01T14:15:45.083Z,33.70
2019-04-01T14:18:13.486Z,35.73
2019-04-01T14:20:42.801Z,29.90
2019-04-01T14:23:11.263Z,32.80
2019-04-01T14:25:39.687Z,32.43
2019-04-01T14:28:09.292Z,32.57
2019-04-01T14:30:37.940Z,31.73
2019-04-01T14:33:06.344Z,30.60
2019-04-01T14:35:35.530Z,33.53
2019-04-01T14:38:04.541Z,35.93
2019-04-01T14:40:32.969Z,34.63
2019-04-01T14:43:01.377Z,32.97
2019-04-01T14:45:30.207Z,30.37
2019-04-01T14:47:58.637Z,31.97
2019-04-01T14:50:27.064Z,30.20
2019-04-01T14:52:55.515Z,29.10
2019-04-01T14:55:24.013Z,34.43
2019-04-01T14:57:52.767Z,33.97
2019-04-01T15:00:21.257Z,32.63
2019-04-01T15:02:49.771Z,34.00
2019-04-01T15:05:18.189Z,32.10
2019-04-01T15:07:47.132Z,33.13
2019-04-01T15:10:16.185Z,27.10
2019-04-01T15:12:44.699Z,35.33
2019-04-01T15:15:13.955Z,34.20
2019-04-01T15:17:42.377Z,31.77
2019-04-01T15:20:11.247Z,34.13
2019-04-01T15:22:39.694Z,29.87
2019-04-01T15:25:08.647Z,32.73
2019-04-01T15:27:37.077Z,32.10
2019-04-01T15:30:08.226Z,32.80
2019-04-01T15:32:36.681Z,30.03
2019-04-01T15:35:07.240Z,29.00
2019-04-01T15:37:35.715Z,31.53
2019-04-01T15:40:06.844Z,30.77
2019-04-01T15:42:35.257Z,32.73
2019-04-01T15:45:04.170Z,32.40
2019-04-01T15:47:32.657Z,24.50
2019-04-01T15:50:01.091Z,28.63
2019-04-01T15:52:29.560Z,26.77
2019-04-01T15:54:58.118Z,28.83
2019-04-01T15:57:27.172Z,29.97
2019-04-01T15:59:55.962Z,31.10
2019-04-01T16:02:24.424Z,30.13
2019-04-01T16:04:53.022Z,28.47
2019-04-01T16:07:22.588Z,31.70
2019-04-01T16:09:51.147Z,26.47
2019-04-01T16:12:20.441Z,28.63
2019-04-01T16:14:48.869Z,30.70
2019-04-01T16:17:17.317Z,30.17
2019-04-01T16:19:45.756Z,29.77
2019-04-01T16:22:14.177Z,28.03
2019-04-01T16:24:42.593Z,28.77
2019-04-01T16:27:11.036Z,34.57
2019-04-01T16:29:39.517Z,27.57
2019-04-01T16:32:08.323Z,29.90
2019-04-01T16:34:36.731Z,30.97
2019-04-01T16:37:05.140Z,31.60
2019-04-01T16:39:33.846Z,33.27
2019-04-01T16:42:02.299Z,27.70
2019-04-01T16:44:30.886Z,31.03
2019-04-01T16:46:59.303Z,27.90
2019-04-01T16:49:27.729Z,30.13
2019-04-01T16:51:56.178Z,35.80
2019-04-01T16:54:24.676Z,26.53
2019-04-01T16:56:53.520Z,36.93
2019-04-01T16:59:21.947Z,32.70
2019-04-01T17:01:51.368Z,32.90
2019-04-01T17:04:21.616Z,26.70
2019-04-01T17:06:50.317Z,27.43
2019-04-01T17:09:19.138Z,27.10
2019-04-01T17:11:47.647Z,28.13
2019-04-01T17:14:16.507Z,33.47
2019-04-01T17:16:44.933Z,27.80
2019-04-01T17:19:13.422Z,29.53
2019-04-01T17:21:41.889Z,28.23
2019-04-01T17:24:10.359Z,30.80
2019-04-01T17:26:56.905Z,27.97
2019-04-01T17:29:25.980Z,30.27
2019-04-01T17:31:54.749Z,28.77
2019-04-01T17:34:23.223Z,30.53
2019-04-01T17:36:51.722Z,29.27
2019-04-01T17:39:20.136Z,29.10
2019-04-01T17:41:48.801Z,30.17
2019-04-01T17:44:17.495Z,29.40
2019-04-01T17:46:46.414Z,31.07
2019-04-01T17:49:14.842Z,39.53
2019-04-01T17:51:43.267Z,34.80
2019-04-01T17:54:11.689Z,32.20
2019-04-01T17:56:40.101Z,33.93
2019-04-01T17:59:08.567Z,30.80
2019-04-01T18:01:37.012Z,29.97
2019-04-01T18:04:05.547Z,29.67
2019-04-01T18:06:34.038Z,29.13
2019-04-01T18:09:02.995Z,27.23
2019-04-01T18:11:31.754Z,30.70
2019-04-01T18:14:02.716Z,34.70
2019-04-01T18:16:31.440Z,26.30
2019-04-01T18:19:00.047Z,29.47
2019-04-01T18:21:28.766Z,32.00
2019-04-01T18:23:57.196Z,29.57
2019-04-01T18:26:25.646Z,28.20
2019-04-01T18:28:54.129Z,31.03
2019-04-01T18:31:22.574Z,33.20
2019-04-01T18:33:56.478Z,31.80
2019-04-01T18:36:22.219Z,35.10
2019-04-01T18:38:51.555Z,31.37
2019-04-01T18:41:20.039Z,31.60
2019-04-01T18:43:48.489Z,33.63
2019-04-01T18:46:20.789Z,32.23
2019-04-01T18:48:48.240Z,33.83
2019-04-01T18:51:20.208Z,37.00
2019-04-01T18:53:47.262Z,31.67
2019-04-01T18:56:15.703Z,33.73
2019-04-01T18:58:44.436Z,35.20
2019-04-01T19:01:12.895Z,32.80
2019-04-01T19:03:42.997Z,30.50
2019-04-01T19:06:11.690Z,36.57
2019-04-01T19:08:40.114Z,34.90
2019-04-01T19:11:10.123Z,30.30
2019-04-01T19:13:38.722Z,37.33
2019-04-01T19:16:08.202Z,32.33
2019-04-01T19:18:39.558Z,32.37
2019-04-01T19:21:08.340Z,32.80
2019-04-01T19:23:37.065Z,31.47
2019-04-01T19:26:06.016Z,44.80
2019-04-01T19:28:34.450Z,54.50
2019-04-01T19:31:02.888Z,61.63
2019-04-01T19:33:31.576Z,45.67
2019-04-01T19:36:01.245Z,39.07
2019-04-01T19:38:30.136Z,38.50
2019-04-01T19:40:59.928Z,34.60
2019-04-01T19:43:28.677Z,37.03
2019-04-01T19:45:57.120Z,36.37
2019-04-01T19:48:25.604Z,35.07
2019-04-01T19:50:54.156Z,38.93
2019-04-01T19:53:24.190Z,41.67
2019-04-01T19:55:52.784Z,39.20
2019-04-01T19:58:21.630Z,41.80
2019-04-01T20:00:50.094Z,46.53
2019-04-01T20:03:18.501Z,40.13
2019-04-01T20:05:46.931Z,37.93
2019-04-01T20:08:16.311Z,31.70
2019-04-01T20:10:46.196Z,36.60
2019-04-01T20:13:15.217Z,29.83
2019-04-01T20:15:43.674Z,35.80
2019-04-01T20:18:12.149Z,39.70
2019-04-01T20:20:41.583Z,29.67
2019-04-01T20:23:10.315Z,28.63
2019-04-01T20:25:38.734Z,33.80
2019-04-01T20:28:07.168Z,32.40
2019-04-01T20:30:35.623Z,33.13
2019-04-01T20:33:16.498Z,32.80
2019-04-01T20:35:34.582Z,30.60
2019-04-01T20:38:03.173Z,29.50
2019-04-01T20:40:31.629Z,30.63
2019-04-01T20:43:00.058Z,30.10
2019-04-01T20:45:28.497Z,30.00
2019-04-01T20:47:57.016Z,29.00
2019-04-01T20:50:25.634Z,29.70
2019-04-01T20:52:54.155Z,31.73
2019-04-01T20:55:22.565Z,26.97
2019-04-01T20:57:51.008Z,26.53
2019-04-01T21:00:19.945Z,29.07
2019-04-01T21:02:48.693Z,31.67
2019-04-01T21:05:17.173Z,29.20
2019-04-01T21:07:47.086Z,32.83
2019-04-01T21:10:15.884Z,27.17
2019-04-01T21:12:44.338Z,29.03
2019-04-01T21:15:13.181Z,30.90
2019-04-01T21:17:41.660Z,33.63
2019-04-01T21:20:12.219Z,37.87
2019-04-01T21:22:41.565Z,28.80
2019-04-01T21:25:10.071Z,29.65
2019-04-01T21:27:38.634Z,29.70
2019-04-01T21:30:10.820Z,29.10
2019-04-01T21:32:39.271Z,29.07
2019-04-01T21:35:09.459Z,31.73
2019-04-01T21:37:38.188Z,33.10
2019-04-01T21:40:07.733Z,27.07
2019-04-01T21:42:36.522Z,27.70
2019-04-01T21:45:08.547Z,35.97
2019-04-01T21:47:36.968Z,39.47
2019-04-01T21:50:07.266Z,28.60
2019-04-01T21:52:35.693Z,32.03
2019-04-01T21:55:07.872Z,30.85
2019-04-01T21:57:35.305Z,33.73
2019-04-01T22:00:06.006Z,30.07
2019-04-01T22:02:36.178Z,34.83
2019-04-01T22:05:07.297Z,34.47
2019-04-01T22:07:35.803Z,28.50
2019-04-01T22:10:05.385Z,30.63
2019-04-01T22:12:33.805Z,32.87
2019-04-01T22:15:02.218Z,34.50
2019-04-01T22:17:30.652Z,33.87
2019-04-01T22:19:59.097Z,31.55
2019-04-01T22:22:27.866Z,32.93
2019-04-01T22:24:56.395Z,33.23
2019-04-01T22:27:24.917Z,29.32
2019-04-01T22:29:53.728Z,33.88
2019-04-01T22:32:22.144Z,26.00
2019-04-01T22:34:50.577Z,37.88
2019-04-01T22:37:27.183Z,30.70
2019-04-01T22:39:49.161Z,33.63
2019-04-01T22:42:17.618Z,31.87
2019-04-01T22:44:46.021Z,31.27
2019-04-01T22:47:16.347Z,35.27
2019-04-01T22:49:44.603Z,29.00
2019-04-01T22:52:13.029Z,30.10
2019-04-01T22:54:41.494Z,32.93
2019-04-01T22:57:09.933Z,30.15
2019-04-01T22:59:38.359Z,30.77
2019-04-01T23:02:06.883Z,33.25
2019-04-01T23:04:36.933Z,26.15
2019-04-01T23:07:05.614Z,30.60
2019-04-01T23:09:34.088Z,22.00
2019-04-01T23:12:02.509Z,31.05
2019-04-01T23:14:30.981Z,42.30
2019-04-01T23:16:59.480Z,54.07
2019-04-01T23:19:27.924Z,56.13
2019-04-01T23:21:56.329Z,43.93
2019-04-01T23:24:25.090Z,30.27
2019-04-01T23:26:55.130Z,31.17
2019-04-01T23:29:23.817Z,32.55
2019-04-01T23:31:52.240Z,25.10
2019-04-01T23:34:20.648Z,25.40
2019-04-01T23:36:49.060Z,30.55
2019-04-01T23:39:17.524Z,28.05
2019-04-01T23:41:46.021Z,25.35
2019-04-01T23:44:14.505Z,25.00
2019-04-01T23:46:43.055Z,25.87
2019-04-01T23:49:11.580Z,26.07
2019-04-01T23:51:40.522Z,24.20
2019-04-01T23:54:08.937Z,26.13
2019-04-01T23:56:37.363Z,27.17
2019-04-01T23:59:06.053Z,21.23
